createdAt,value
2018-08-18T00:01:50.191Z,101606.97
2018-08-18T00:04:32.149Z,101599.59
2018-08-18T00:07:03.174Z,101607.04
2018-08-18T00:09:33.354Z,101609.17
2018-08-18T00:12:03.582Z,101605.87
2018-08-18T00:14:34.771Z,101605.17
2018-08-18T00:17:05.529Z,101609.16
2018-08-18T00:19:35.684Z,101605.61
2018-08-18T00:22:05.913Z,101605.75
2018-08-18T00:24:38.655Z,101605.75
2018-08-18T00:27:08.745Z,101613.19
2018-08-18T00:29:39.429Z,101608.88
2018-08-18T00:32:09.508Z,101609.78
2018-08-18T00:34:44.678Z,101607.69
2018-08-18T00:37:15.467Z,101613.57
2018-08-18T00:39:45.637Z,101609.78
2018-08-18T00:42:15.776Z,101608.31
2018-08-18T00:44:45.967Z,101611.19
2018-08-18T00:47:16.187Z,101614.13
2018-08-18T00:49:46.341Z,101612.56
2018-08-18T00:52:17.170Z,101614.27
2018-08-18T00:54:47.305Z,101609.06
2018-08-18T00:57:28.279Z,101609.59
2018-08-18T00:59:58.571Z,101604.29
2018-08-18T01:02:29.161Z,101604.09
2018-08-18T01:05:00.700Z,101607.41
2018-08-18T01:07:32.205Z,101610.23
2018-08-18T01:10:02.953Z,101622.91
2018-08-18T01:12:33.263Z,101622.35
2018-08-18T01:15:06.294Z,101622.55
2018-08-18T01:17:36.326Z,101626.14
2018-08-18T01:20:07.660Z,101627.80
2018-08-18T01:22:37.736Z,101621.17
2018-08-18T01:25:07.855Z,101622.55
2018-08-18T01:27:50.501Z,101622.16
2018-08-18T01:30:20.687Z,101617.22
2018-08-18T01:32:50.818Z,101622.38
2018-08-18T01:35:22.484Z,101620.72
2018-08-18T01:37:52.565Z,101622.61
2018-08-18T01:40:22.701Z,101618.68
2018-08-18T01:42:52.838Z,101633.92
2018-08-18T01:45:23.014Z,101633.91
2018-08-18T01:47:53.167Z,101636.55
2018-08-18T01:50:23.295Z,101634.19
2018-08-18T01:52:53.412Z,101637.82
2018-08-18T01:55:23.465Z,101637.56
2018-08-18T01:57:53.505Z,101641.20
2018-08-18T02:00:26.849Z,101639.46
2018-08-18T02:02:56.973Z,101640.19
2018-08-18T02:05:28.308Z,101645.33
2018-08-18T02:07:58.449Z,101638.41
2018-08-18T02:10:28.746Z,101639.06
2018-08-18T02:13:05.090Z,101638.42
2018-08-18T02:15:35.308Z,101645.81
2018-08-18T02:18:05.551Z,101635.86
2018-08-18T02:20:35.762Z,101640.44
2018-08-18T02:23:05.884Z,101639.54
2018-08-18T02:25:36.495Z,101637.88
2018-08-18T02:28:07.674Z,101637.80
2018-08-18T02:30:37.897Z,101639.25
2018-08-18T02:33:08.122Z,101641.89
2018-08-18T02:35:38.274Z,101634.88
2018-08-18T02:38:08.432Z,101634.42
2018-08-18T02:40:38.935Z,101632.70
2018-08-18T02:43:22.458Z,101636.43
2018-08-18T02:45:52.571Z,101632.97
2018-08-18T02:48:22.739Z,101627.92
2018-08-18T02:50:53.032Z,101628.14
2018-08-18T02:53:28.023Z,101631.38
2018-08-18T02:55:58.243Z,101635.82
2018-08-18T02:58:28.354Z,101633.22
2018-08-18T03:00:58.491Z,101633.17
2018-08-18T03:03:28.608Z,101638.16
2018-08-18T03:06:02.708Z,101638.41
2018-08-18T03:08:32.799Z,101639.95
2018-08-18T03:11:03.014Z,101639.02
2018-08-18T03:13:33.140Z,101640.13
2018-08-18T03:16:04.427Z,101645.77
2018-08-18T03:18:45.489Z,101649.01
2018-08-18T03:21:16.153Z,101653.45
2018-08-18T03:24:02.813Z,101651.64
2018-08-18T03:26:36.913Z,101651.43
2018-08-18T03:29:07.082Z,101650.61
2018-08-18T03:31:37.806Z,101650.39
2018-08-18T03:34:08.515Z,101650.47
2018-08-18T03:36:42.612Z,101646.51
2018-08-18T03:39:21.613Z,101652.27
2018-08-18T03:41:53.900Z,101653.20
2018-08-18T03:44:24.039Z,101654.91
2018-08-18T03:46:54.276Z,101657.98
2018-08-18T03:49:24.480Z,101666.30
2018-08-18T03:51:55.777Z,101663.78
2018-08-18T03:54:25.880Z,101656.91
2018-08-18T03:56:56.034Z,101660.75
2018-08-18T03:59:26.146Z,101657.17
2018-08-18T04:01:57.655Z,101654.88
2018-08-18T04:04:29.129Z,101663.75
2018-08-18T04:07:00.232Z,101654.30
2018-08-18T04:09:32.386Z,101655.58
2018-08-18T04:12:04.165Z,101653.21
2018-08-18T04:14:43.537Z,101665.93
2018-08-18T04:17:32.603Z,101666.16
2018-08-18T04:20:02.677Z,101673.13
2018-08-18T04:22:32.785Z,101672.86
2018-08-18T04:25:02.918Z,101672.97
2018-08-18T04:27:43.501Z,101671.25
2018-08-18T04:30:20.137Z,101677.55
2018-08-18T04:33:03.426Z,101675.66
2018-08-18T04:35:34.056Z,101673.39
2018-08-18T04:38:05.097Z,101680.31
2018-08-18T04:40:37.568Z,101677.55
2018-08-18T04:43:07.746Z,101683.84
2018-08-18T04:45:37.813Z,101675.41
2018-08-18T04:48:08.131Z,101684.08
2018-08-18T04:50:38.538Z,101690.42
2018-08-18T04:53:08.581Z,101688.92
2018-08-18T04:55:38.740Z,101693.53
2018-08-18T04:58:08.894Z,101691.16
2018-08-18T05:00:38.988Z,101685.23
2018-08-18T05:03:09.233Z,101698.02
2018-08-18T05:05:39.358Z,101690.70
2018-08-18T05:08:09.521Z,101695.02
2018-08-18T05:10:40.868Z,101697.84
2018-08-18T05:13:11.020Z,101697.08
2018-08-18T05:15:41.195Z,101691.59
2018-08-18T05:18:11.396Z,101696.94
2018-08-18T05:20:41.535Z,101691.64
2018-08-18T05:23:24.001Z,101695.52
2018-08-18T05:25:54.820Z,101694.79
2018-08-18T05:28:24.959Z,101698.07
2018-08-18T05:30:55.321Z,101696.44
2018-08-18T05:33:25.496Z,101695.39
2018-08-18T05:35:55.705Z,101701.66
2018-08-18T05:38:25.837Z,101703.81
2018-08-18T05:40:55.890Z,101701.08
2018-08-18T05:43:26.424Z,101702.27
2018-08-18T05:45:56.473Z,101707.66
2018-08-18T05:48:26.591Z,101700.02
2018-08-18T05:50:56.661Z,101709.30
2018-08-18T05:53:30.885Z,101705.33
2018-08-18T05:56:01.622Z,101708.52
2018-08-18T05:58:51.903Z,101705.36
2018-08-18T06:01:39.593Z,101699.52
2018-08-18T06:04:15.194Z,101699.44
2018-08-18T06:06:46.131Z,101698.06
2018-08-18T06:09:18.394Z,101695.98
2018-08-18T06:11:48.595Z,101694.34
2018-08-18T06:14:19.313Z,101696.27
2018-08-18T06:16:49.638Z,101694.31
2018-08-18T06:19:19.819Z,101697.09
2018-08-18T06:21:49.923Z,101700.39
2018-08-18T06:24:20.022Z,101695.53
2018-08-18T06:26:50.123Z,101697.80
2018-08-18T06:29:20.279Z,101696.34
2018-08-18T06:32:03.563Z,101702.83
2018-08-18T06:34:34.912Z,101704.05
2018-08-18T06:37:05.584Z,101705.31
2018-08-18T06:39:52.992Z,101706.48
2018-08-18T06:42:43.484Z,101709.77
2018-08-18T06:45:19.303Z,101713.39
2018-08-18T06:47:49.435Z,101708.51
2018-08-18T06:50:20.499Z,101714.57
2018-08-18T06:52:50.637Z,101711.27
2018-08-18T06:55:21.324Z,101703.73
2018-08-18T06:57:54.383Z,101704.19
2018-08-18T07:00:25.862Z,101706.11
2018-08-18T07:02:55.940Z,101702.30
2018-08-18T07:05:26.152Z,101703.52
2018-08-18T07:07:56.260Z,101693.25
2018-08-18T07:10:33.468Z,101704.11
2018-08-18T07:13:06.853Z,101703.37
2018-08-18T07:15:38.363Z,101697.40
2018-08-18T07:18:10.546Z,101706.70
2018-08-18T07:20:40.894Z,101692.19
2018-08-18T07:23:11.062Z,101702.39
2018-08-18T07:25:48.675Z,101698.66
2018-08-18T07:28:22.687Z,101703.11
2018-08-18T07:30:52.954Z,101699.25
2018-08-18T07:33:23.277Z,101699.16
2018-08-18T07:35:53.465Z,101699.86
2018-08-18T07:38:23.604Z,101700.77
2018-08-18T07:40:55.927Z,101696.70
2018-08-18T07:43:30.364Z,101701.58
2018-08-18T07:46:02.057Z,101700.77
2018-08-18T07:48:32.255Z,101710.73
2018-08-18T07:51:02.390Z,101703.17
2018-08-18T07:53:32.557Z,101712.03
2018-08-18T07:56:02.707Z,101710.60
2018-08-18T07:58:32.892Z,101712.05
2018-08-18T08:01:03.070Z,101713.85
2018-08-18T08:03:33.307Z,101713.97
2018-08-18T08:06:03.427Z,101702.00
2018-08-18T08:08:38.463Z,101703.81
2018-08-18T08:11:13.470Z,101705.05
2018-08-18T08:13:43.639Z,101700.73
2018-08-18T08:16:13.779Z,101712.16
2018-08-18T08:18:43.858Z,101713.12
2018-08-18T08:21:14.128Z,101716.06
2018-08-18T08:23:44.256Z,101719.98
2018-08-18T08:26:14.424Z,101725.45
2018-08-18T08:28:44.561Z,101713.52
2018-08-18T08:31:15.578Z,101715.09
2018-08-18T08:33:45.680Z,101718.37
2018-08-18T08:36:17.292Z,101716.52
2018-08-18T08:39:00.007Z,101719.12
2018-08-18T08:41:32.391Z,101718.08
2018-08-18T08:44:02.500Z,101725.61
2018-08-18T08:46:32.593Z,101715.33
2018-08-18T08:49:02.938Z,101715.66
2018-08-18T08:51:33.100Z,101712.11
2018-08-18T08:54:03.188Z,101712.41
2018-08-18T08:56:40.203Z,101721.23
2018-08-18T08:59:10.421Z,101722.38
2018-08-18T09:01:41.093Z,101722.97
2018-08-18T09:04:11.203Z,101720.12
2018-08-18T09:06:46.115Z,101724.89
2018-08-18T09:09:16.235Z,101720.66
2018-08-18T09:11:46.401Z,101714.68
2018-08-18T09:14:16.555Z,101722.13
2018-08-18T09:16:46.834Z,101715.87
2018-08-18T09:19:17.822Z,101719.17
2018-08-18T09:21:52.985Z,101710.63
2018-08-18T09:24:25.127Z,101712.02
2018-08-18T09:26:59.385Z,101705.64
2018-08-18T09:29:39.689Z,101702.06
2018-08-18T09:32:09.849Z,101705.59
2018-08-18T09:34:44.924Z,101701.07
2018-08-18T09:37:15.404Z,101700.67
2018-08-18T09:39:46.073Z,101711.09
2018-08-18T09:42:17.790Z,101704.43
2018-08-18T09:44:50.035Z,101708.23
2018-08-18T09:47:20.254Z,101699.77
2018-08-18T09:49:50.396Z,101704.86
2018-08-18T09:52:21.190Z,101702.34
2018-08-18T09:54:51.287Z,101704.84
2018-08-18T09:57:21.546Z,101706.00
2018-08-18T09:59:51.696Z,101708.76
2018-08-18T10:02:21.835Z,101702.72
2018-08-18T10:04:51.957Z,101708.33
2018-08-18T10:07:22.176Z,101693.44
2018-08-18T10:09:52.283Z,101702.77
2018-08-18T10:12:22.428Z,101707.05
2018-08-18T10:14:52.643Z,101695.95
2018-08-18T10:17:22.765Z,101697.91
2018-08-18T10:19:52.864Z,101694.61
2018-08-18T10:22:22.985Z,101699.95
2018-08-18T10:24:53.217Z,101696.10
2018-08-18T10:27:23.357Z,101696.80
2018-08-18T10:29:53.533Z,101689.34
2018-08-18T10:32:23.765Z,101687.44
2018-08-18T10:34:54.021Z,101687.11
2018-08-18T10:37:24.116Z,101678.56
2018-08-18T10:40:02.168Z,101678.27
2018-08-18T10:42:33.325Z,101679.17
2018-08-18T10:45:04.410Z,101681.80
2018-08-18T10:47:34.617Z,101678.30
2018-08-18T10:50:21.085Z,101676.42
2018-08-18T10:53:00.189Z,101684.48
2018-08-18T10:55:30.978Z,101681.94
2018-08-18T10:58:04.946Z,101671.59
2018-08-18T11:00:35.663Z,101678.51
2018-08-18T11:03:07.898Z,101673.73
2018-08-18T11:05:38.026Z,101672.80
2018-08-18T11:08:09.908Z,101668.02
2018-08-18T11:10:42.290Z,101675.31
2018-08-18T11:13:12.423Z,101672.23
2018-08-18T11:15:43.425Z,101675.72
2018-08-18T11:18:13.654Z,101685.60
2018-08-18T11:20:43.715Z,101676.78
2018-08-18T11:23:15.539Z,101682.25
2018-08-18T11:25:53.044Z,101680.25
2018-08-18T11:28:24.038Z,101677.86
2018-08-18T11:30:55.485Z,101678.88
2018-08-18T11:33:42.592Z,101678.73
2018-08-18T11:36:13.402Z,101675.47
2018-08-18T11:38:43.578Z,101671.48
2018-08-18T11:41:13.772Z,101673.45
2018-08-18T11:43:50.108Z,101664.64
2018-08-18T11:46:20.241Z,101664.66
2018-08-18T11:48:50.431Z,101666.52
2018-08-18T11:51:20.819Z,101664.86
2018-08-18T11:54:02.734Z,101655.05
2018-08-18T11:56:39.093Z,101652.07
2018-08-18T11:59:13.548Z,101658.77
2018-08-18T12:01:47.194Z,101659.55
2018-08-18T12:04:17.929Z,101655.62
2018-08-18T12:06:52.988Z,101656.78
2018-08-18T12:09:23.253Z,101653.91
2018-08-18T12:11:53.431Z,101657.08
2018-08-18T12:14:23.701Z,101646.75
2018-08-18T12:16:53.991Z,101649.61
2018-08-18T12:19:24.125Z,101650.83
2018-08-18T12:21:55.537Z,101644.20
2018-08-18T12:24:25.649Z,101640.85
2018-08-18T12:27:12.659Z,101636.21
2018-08-18T12:29:42.870Z,101638.31
2018-08-18T12:32:18.150Z,101633.76
2018-08-18T12:34:48.335Z,101636.13
2018-08-18T12:37:18.492Z,101627.45
2018-08-18T12:39:48.633Z,101619.84
2018-08-18T12:42:23.827Z,101618.03
2018-08-18T12:44:54.063Z,101634.69
2018-08-18T12:47:24.332Z,101625.64
2018-08-18T12:49:55.121Z,101621.80
2018-08-18T12:52:25.333Z,101614.20
2018-08-18T12:54:55.540Z,101623.95
2018-08-18T12:57:39.119Z,101613.63
2018-08-18T13:00:09.402Z,101612.66
2018-08-18T13:02:49.669Z,101608.52
2018-08-18T13:05:22.440Z,101600.98
2018-08-18T13:07:53.627Z,101598.56
2018-08-18T13:10:28.697Z,101603.91
2018-08-18T13:12:58.910Z,101598.30
2018-08-18T13:15:29.115Z,101597.72
2018-08-18T13:17:59.198Z,101595.01
2018-08-18T13:20:29.464Z,101601.98
2018-08-18T13:22:59.616Z,101591.80
2018-08-18T13:25:31.471Z,101597.99
2018-08-18T13:28:03.060Z,101584.80
2018-08-18T13:30:33.787Z,101581.17
2018-08-18T13:33:03.932Z,101575.59
2018-08-18T13:35:34.114Z,101578.36
2018-08-18T13:38:05.462Z,101579.89
2018-08-18T13:40:35.701Z,101575.23
2018-08-18T13:43:05.765Z,101575.13
2018-08-18T13:45:44.386Z,101576.30
2018-08-18T13:48:14.745Z,101581.70
2018-08-18T13:50:44.865Z,101570.39
2018-08-18T13:53:14.999Z,101576.41
2018-08-18T13:55:45.147Z,101567.53
2018-08-18T13:58:15.255Z,101570.53
2018-08-18T14:00:45.532Z,101560.80
2018-08-18T14:03:27.330Z,101557.59
2018-08-18T14:05:57.905Z,101564.41
2018-08-18T14:08:28.005Z,101561.51
2018-08-18T14:10:58.191Z,101559.52
2018-08-18T14:13:29.408Z,101561.11
2018-08-18T14:15:59.588Z,101558.71
2018-08-18T14:18:29.750Z,101557.69
2018-08-18T14:21:07.823Z,101554.10
2018-08-18T14:23:38.001Z,101559.38
2018-08-18T14:26:08.189Z,101559.71
2018-08-18T14:28:38.318Z,101556.13
2018-08-18T14:31:08.541Z,101559.16
2018-08-18T14:33:38.591Z,101550.56
2018-08-18T14:36:14.856Z,101557.52
2018-08-18T14:38:46.632Z,101558.78
2018-08-18T14:41:31.681Z,101549.95
2018-08-18T14:44:01.765Z,101552.73
2018-08-18T14:46:32.018Z,101546.97
2018-08-18T14:49:02.065Z,101542.64
2018-08-18T14:51:32.170Z,101537.22
2018-08-18T14:54:02.378Z,101540.81
2018-08-18T14:56:32.556Z,101542.31
2018-08-18T14:59:02.745Z,101536.38
2018-08-18T15:01:33.041Z,101541.97
2018-08-18T15:04:03.240Z,101540.00
2018-08-18T15:06:33.561Z,101534.88
2018-08-18T15:09:03.832Z,101532.21
2018-08-18T15:11:34.048Z,101539.71
2018-08-18T15:14:04.141Z,101541.31
2018-08-18T15:16:34.428Z,101542.40
2018-08-18T15:19:04.656Z,101535.65
2018-08-18T15:21:34.833Z,101537.00
2018-08-18T15:24:05.071Z,101535.59
2018-08-18T15:26:35.285Z,101540.40
2018-08-18T15:29:08.067Z,101540.21
2018-08-18T15:31:38.177Z,101541.70
2018-08-18T15:34:08.313Z,101536.42
2018-08-18T15:36:38.490Z,101538.02
2018-08-18T15:39:09.264Z,101538.94
2018-08-18T15:41:39.417Z,101532.74
2018-08-18T15:44:11.238Z,101535.30
2018-08-18T15:46:41.404Z,101534.55
2018-08-18T15:49:13.501Z,101530.19
2018-08-18T15:51:43.679Z,101527.77
2018-08-18T15:54:13.873Z,101526.33
2018-08-18T15:56:45.262Z,101520.67
2018-08-18T15:59:15.532Z,101526.73
2018-08-18T16:01:45.697Z,101509.48
2018-08-18T16:04:15.880Z,101522.77
2018-08-18T16:06:46.080Z,101524.46
2018-08-18T16:09:16.233Z,101523.55
2018-08-18T16:11:46.411Z,101520.05
2018-08-18T16:14:16.500Z,101520.98
2018-08-18T16:17:00.354Z,101519.53
2018-08-18T16:19:35.400Z,101526.98
2018-08-18T16:22:06.291Z,101526.44
2018-08-18T16:24:43.152Z,101525.57
2018-08-18T16:27:13.402Z,101530.50
2018-08-18T16:29:43.625Z,101524.23
2018-08-18T16:32:24.052Z,101528.25
2018-08-18T16:35:02.673Z,101534.77
2018-08-18T16:37:35.046Z,101535.81
2018-08-18T16:40:05.277Z,101531.72
2018-08-18T16:42:35.456Z,101536.42
2018-08-18T16:45:06.218Z,101536.16
2018-08-18T16:47:41.416Z,101542.19
2018-08-18T16:50:11.572Z,101542.05
2018-08-18T16:52:42.174Z,101542.39
2018-08-18T16:55:12.293Z,101536.06
2018-08-18T16:57:42.464Z,101540.41
2018-08-18T17:00:12.685Z,101540.19
2018-08-18T17:02:42.847Z,101541.44
2018-08-18T17:05:12.942Z,101542.83
2018-08-18T17:07:44.100Z,101550.08
2018-08-18T17:10:14.293Z,101552.05
2018-08-18T17:12:44.516Z,101556.25
2018-08-18T17:15:14.604Z,101559.47
2018-08-18T17:17:44.793Z,101567.00
2018-08-18T17:20:15.009Z,101567.28
2018-08-18T17:22:46.263Z,101566.60
2018-08-18T17:25:16.450Z,101565.87
2018-08-18T17:27:46.586Z,101563.73
2018-08-18T17:30:16.757Z,101570.97
2018-08-18T17:32:46.844Z,101569.91
2018-08-18T17:35:16.923Z,101571.19
2018-08-18T17:37:47.046Z,101577.34
2018-08-18T17:40:17.171Z,101574.41
2018-08-18T17:42:47.380Z,101584.48
2018-08-18T17:45:17.508Z,101582.44
2018-08-18T17:47:51.654Z,101584.19
2018-08-18T17:50:21.826Z,101588.41
2018-08-18T17:52:51.928Z,101587.28
2018-08-18T17:55:22.040Z,101591.08
2018-08-18T17:57:52.145Z,101589.26
2018-08-18T18:00:23.839Z,101594.52
2018-08-18T18:02:56.795Z,101595.75
2018-08-18T18:05:35.390Z,101591.61
2018-08-18T18:08:06.990Z,101594.18
2018-08-18T18:10:38.931Z,101591.97
2018-08-18T18:13:17.824Z,101592.72
2018-08-18T18:15:48.940Z,101587.08
2018-08-18T18:18:20.561Z,101593.06
2018-08-18T18:20:54.917Z,101595.33
2018-08-18T18:23:25.223Z,101590.81
2018-08-18T18:25:55.313Z,101596.43
2018-08-18T18:28:25.394Z,101595.69
2018-08-18T18:30:55.564Z,101603.20
2018-08-18T18:33:25.758Z,101601.76
2018-08-18T18:35:55.863Z,101613.59
2018-08-18T18:38:26.032Z,101604.75
2018-08-18T18:40:56.149Z,101606.31
2018-08-18T18:43:26.346Z,101612.53
2018-08-18T18:45:56.536Z,101613.85
2018-08-18T18:48:26.576Z,101619.16
2018-08-18T18:50:56.734Z,101622.77
2018-08-18T18:53:32.405Z,101629.02
2018-08-18T18:56:02.503Z,101630.81
2018-08-18T18:58:32.654Z,101633.83
2018-08-18T19:01:06.828Z,101638.42
2018-08-18T19:03:36.911Z,101641.50
2018-08-18T19:06:07.104Z,101645.42
2018-08-18T19:08:56.669Z,101649.12
2018-08-18T19:11:27.886Z,101650.58
2018-08-18T19:13:58.257Z,101651.30
2018-08-18T19:16:28.333Z,101654.41
2018-08-18T19:18:58.490Z,101649.47
2018-08-18T19:21:33.553Z,101655.70
2018-08-18T19:24:10.685Z,101661.39
2018-08-18T19:26:55.360Z,101658.58
2018-08-18T19:29:28.544Z,101661.62
2018-08-18T19:32:00.670Z,101657.73
2018-08-18T19:34:30.777Z,101664.96
2018-08-18T19:37:08.155Z,101663.48
2018-08-18T19:39:39.120Z,101658.30
2018-08-18T19:42:16.559Z,101665.92
2018-08-18T19:44:48.079Z,101667.14
2018-08-18T19:47:37.230Z,101663.58
2018-08-18T19:50:08.620Z,101665.53
2018-08-18T19:52:38.694Z,101667.69
2018-08-18T19:55:11.322Z,101662.20
2018-08-18T19:57:41.854Z,101669.75
2018-08-18T20:00:18.604Z,101668.44
2018-08-18T20:03:01.147Z,101674.28
2018-08-18T20:05:31.232Z,101666.84
2018-08-18T20:08:01.293Z,101666.12
2018-08-18T20:10:31.636Z,101671.48
2018-08-18T20:13:01.670Z,101677.59
2018-08-18T20:15:31.803Z,101668.98
2018-08-18T20:18:01.988Z,101670.23
2018-08-18T20:20:32.142Z,101664.52
2018-08-18T20:23:02.260Z,101669.38
2018-08-18T20:25:32.568Z,101664.80
2018-08-18T20:28:02.651Z,101668.81
2018-08-18T20:30:32.770Z,101664.59
2018-08-18T20:33:02.912Z,101670.70
2018-08-18T20:35:33.073Z,101670.67
2018-08-18T20:38:03.261Z,101673.91
2018-08-18T20:40:33.408Z,101670.95
2018-08-18T20:43:03.513Z,101669.92
2018-08-18T20:45:42.597Z,101666.35
2018-08-18T20:48:20.350Z,101669.22
2018-08-18T20:50:50.782Z,101664.55
2018-08-18T20:53:20.959Z,101663.38
2018-08-18T20:55:59.244Z,101664.91
2018-08-18T20:58:30.066Z,101660.91
2018-08-18T21:01:00.208Z,101666.36
2018-08-18T21:03:48.257Z,101672.34
2018-08-18T21:06:19.389Z,101682.06
2018-08-18T21:08:49.597Z,101676.23
2018-08-18T21:11:19.756Z,101673.05
2018-08-18T21:13:51.172Z,101678.20
2018-08-18T21:16:22.173Z,101682.37
2018-08-18T21:18:52.247Z,101684.66
2018-08-18T21:21:36.587Z,101682.63
2018-08-18T21:24:06.781Z,101690.94
2018-08-18T21:26:36.938Z,101692.53
2018-08-18T21:29:07.075Z,101685.72
2018-08-18T21:31:38.371Z,101691.23
2018-08-18T21:34:09.041Z,101694.09
2018-08-18T21:36:39.224Z,101689.98
2018-08-18T21:39:10.606Z,101695.02
2018-08-18T21:41:42.282Z,101691.80
2018-08-18T21:44:14.157Z,101693.39
2018-08-18T21:46:44.629Z,101699.83
2018-08-18T21:49:14.804Z,101692.56
2018-08-18T21:51:45.001Z,101697.52
2018-08-18T21:54:15.137Z,101706.86
2018-08-18T21:56:45.309Z,101695.41
2018-08-18T21:59:15.394Z,101705.47
2018-08-18T22:01:45.747Z,101704.02
2018-08-18T22:04:15.867Z,101708.09
2018-08-18T22:06:46.048Z,101703.86
2018-08-18T22:09:29.381Z,101707.73
2018-08-18T22:11:59.503Z,101717.41
2018-08-18T22:14:29.593Z,101724.33
2018-08-18T22:16:59.820Z,101720.47
2018-08-18T22:19:30.555Z,101727.72
2018-08-18T22:22:00.735Z,101723.31
2018-08-18T22:24:30.890Z,101721.50
2018-08-18T22:27:01.030Z,101727.85
2018-08-18T22:29:31.170Z,101725.47
2018-08-18T22:32:03.834Z,101726.45
2018-08-18T22:34:34.375Z,101732.74
2018-08-18T22:37:09.475Z,101735.78
2018-08-18T22:39:39.533Z,101740.73
2018-08-18T22:42:10.182Z,101739.09
2018-08-18T22:44:41.143Z,101737.45
2018-08-18T22:47:11.454Z,101739.44
2018-08-18T22:49:41.704Z,101738.34
2018-08-18T22:52:11.853Z,101736.77
2018-08-18T22:54:42.192Z,101734.18
2018-08-18T22:57:14.886Z,101738.58
2018-08-18T22:59:45.009Z,101730.28
2018-08-18T23:02:15.595Z,101734.83
2018-08-18T23:04:46.043Z,101730.90
2018-08-18T23:07:16.318Z,101733.36
2018-08-18T23:09:46.429Z,101739.22
2018-08-18T23:12:16.564Z,101735.84
2018-08-18T23:14:47.017Z,101729.77
2018-08-18T23:17:17.173Z,101733.34
2018-08-18T23:19:47.317Z,101728.09
2018-08-18T23:22:34.197Z,101732.15
2018-08-18T23:25:04.255Z,101737.64
2018-08-18T23:27:34.439Z,101730.36
2018-08-18T23:30:05.447Z,101732.78
2018-08-18T23:32:35.730Z,101728.37
2018-08-18T23:35:06.204Z,101726.36
2018-08-18T23:37:36.364Z,101722.43
2018-08-18T23:40:06.665Z,101724.09
2018-08-18T23:42:38.156Z,101731.22
2018-08-18T23:45:08.384Z,101730.81
2018-08-18T23:47:38.524Z,101723.84
2018-08-18T23:50:08.593Z,101719.31
2018-08-18T23:52:55.041Z,101719.31
2018-08-18T23:55:25.238Z,101716.72
2018-08-18T23:57:55.391Z,101718.75
